Terminal Aerodrome Forecast
Issued by NWS Billings, MT

Home | Current Version | Previous Version | Graphics & Text | Print | Product List | Glossary On
Versions: 1 2 3 4 5 6 7 8 9 10 11 12 13 14 15 16 17 18 19 20 21 22 23 24 25 26
000
FTUS45 KBYZ 222335
TAFMLS
TAF
KMLS 222335Z 2300/2324 08007KT P6SM SKC
     FM230200 10009KT P6SM FEW100
     FM230600 12011KT P6SM SKC
     FM231500 14008KT P6SM SCT100=

USA.gov is the U.S. government's official web portal to all federal, state and local government web resources and services.